sensor_id;sensor_type;location;lat;lon;timestamp;P1;durP1;ratioP1;P2;durP2;ratioP2
12921;SDS011;6528;48.086;16.282;2022-11-25T00:01:32;5.43;;;3.50;;
12921;SDS011;6528;48.086;16.282;2022-11-25T00:04:00;4.07;;;2.80;;
12921;SDS011;6528;48.086;16.282;2022-11-25T00:06:28;3.33;;;3.03;;
12921;SDS011;6528;48.086;16.282;2022-11-25T00:08:59;5.37;;;3.60;;
12921;SDS011;6528;48.086;16.282;2022-11-25T00:11:33;3.67;;;3.37;;
12921;SDS011;6528;48.086;16.282;2022-11-25T00:14:01;3.97;;;3.57;;
12921;SDS011;6528;48.086;16.282;2022-11-25T00:16:28;3.53;;;2.87;;
12921;SDS011;6528;48.086;16.282;2022-11-25T00:18:56;4.40;;;3.00;;
12921;SDS011;6528;48.086;16.282;2022-11-25T00:21:25;4.73;;;3.23;;
12921;SDS011;6528;48.086;16.282;2022-11-25T00:23:54;3.83;;;2.77;;
12921;SDS011;6528;48.086;16.282;2022-11-25T00:26:22;3.57;;;3.27;;
12921;SDS011;6528;48.086;16.282;2022-11-25T00:28:51;4.30;;;3.27;;
12921;SDS011;6528;48.086;16.282;2022-11-25T00:31:19;3.60;;;2.57;;
12921;SDS011;6528;48.086;16.282;2022-11-25T00:33:48;7.17;;;3.40;;
12921;SDS011;6528;48.086;16.282;2022-11-25T00:36:19;4.90;;;2.97;;
12921;SDS011;6528;48.086;16.282;2022-11-25T00:38:47;3.30;;;3.10;;
12921;SDS011;6528;48.086;16.282;2022-11-25T00:41:26;3.30;;;3.00;;
12921;SDS011;6528;48.086;16.282;2022-11-25T00:44:16;2.93;;;2.73;;
12921;SDS011;6528;48.086;16.282;2022-11-25T00:47:14;3.10;;;2.80;;
12921;SDS011;6528;48.086;16.282;2022-11-25T00:49:44;2.33;;;2.13;;
12921;SDS011;6528;48.086;16.282;2022-11-25T00:52:16;2.53;;;2.33;;
12921;SDS011;6528;48.086;16.282;2022-11-25T00:54:51;2.67;;;2.47;;
12921;SDS011;6528;48.086;16.282;2022-11-25T00:57:19;3.27;;;3.07;;
12921;SDS011;6528;48.086;16.282;2022-11-25T00:59:48;3.70;;;2.60;;
12921;SDS011;6528;48.086;16.282;2022-11-25T01:02:15;3.87;;;2.57;;
12921;SDS011;6528;48.086;16.282;2022-11-25T01:04:44;3.40;;;2.37;;
12921;SDS011;6528;48.086;16.282;2022-11-25T01:07:11;4.67;;;2.57;;
12921;SDS011;6528;48.086;16.282;2022-11-25T01:09:38;2.60;;;2.40;;
12921;SDS011;6528;48.086;16.282;2022-11-25T01:12:05;4.53;;;2.60;;
12921;SDS011;6528;48.086;16.282;2022-11-25T01:14:32;3.50;;;2.70;;
12921;SDS011;6528;48.086;16.282;2022-11-25T01:17:00;2.60;;;2.40;;
12921;SDS011;6528;48.086;16.282;2022-11-25T01:19:27;3.53;;;3.00;;
12921;SDS011;6528;48.086;16.282;2022-11-25T01:21:53;2.90;;;2.67;;
12921;SDS011;6528;48.086;16.282;2022-11-25T01:24:20;2.67;;;2.47;;
12921;SDS011;6528;48.086;16.282;2022-11-25T01:26:49;2.83;;;2.03;;
12921;SDS011;6528;48.086;16.282;2022-11-25T01:29:17;3.37;;;2.70;;
12921;SDS011;6528;48.086;16.282;2022-11-25T01:31:44;2.93;;;2.60;;
12921;SDS011;6528;48.086;16.282;2022-11-25T01:34:17;2.57;;;2.37;;
12921;SDS011;6528;48.086;16.282;2022-11-25T01:36:48;2.27;;;2.07;;
12921;SDS011;6528;48.086;16.282;2022-11-25T01:39:17;2.00;;;1.90;;
12921;SDS011;6528;48.086;16.282;2022-11-25T01:41:45;3.10;;;2.40;;
12921;SDS011;6528;48.086;16.282;2022-11-25T01:44:15;2.30;;;2.20;;
12921;SDS011;6528;48.086;16.282;2022-11-25T01:49:40;2.40;;;2.20;;
12921;SDS011;6528;48.086;16.282;2022-11-25T01:52:18;1.97;;;1.87;;
12921;SDS011;6528;48.086;16.282;2022-11-25T01:54:49;2.00;;;1.90;;
12921;SDS011;6528;48.086;16.282;2022-11-25T01:57:33;5.07;;;2.10;;
12921;SDS011;6528;48.086;16.282;2022-11-25T02:00:21;1.90;;;1.67;;
12921;SDS011;6528;48.086;16.282;2022-11-25T02:02:48;2.80;;;2.20;;
12921;SDS011;6528;48.086;16.282;2022-11-25T02:05:19;2.10;;;1.43;;
12921;SDS011;6528;48.086;16.282;2022-11-25T02:08:16;2.00;;;1.50;;
12921;SDS011;6528;48.086;16.282;2022-11-25T02:10:45;2.73;;;1.47;;
12921;SDS011;6528;48.086;16.282;2022-11-25T02:13:12;1.30;;;1.20;;
12921;SDS011;6528;48.086;16.282;2022-11-25T02:15:39;2.33;;;1.20;;
12921;SDS011;6528;48.086;16.282;2022-11-25T02:18:06;2.27;;;1.47;;
12921;SDS011;6528;48.086;16.282;2022-11-25T02:20:33;1.23;;;1.07;;
12921;SDS011;6528;48.086;16.282;2022-11-25T02:25:51;1.40;;;1.30;;
12921;SDS011;6528;48.086;16.282;2022-11-25T02:28:23;6.10;;;1.60;;
12921;SDS011;6528;48.086;16.282;2022-11-25T02:30:52;1.20;;;1.10;;
12921;SDS011;6528;48.086;16.282;2022-11-25T02:33:19;3.03;;;1.23;;
12921;SDS011;6528;48.086;16.282;2022-11-25T02:38:16;2.00;;;1.27;;
12921;SDS011;6528;48.086;16.282;2022-11-25T02:43:49;2.30;;;1.00;;
12921;SDS011;6528;48.086;16.282;2022-11-25T02:46:18;2.17;;;1.20;;
12921;SDS011;6528;48.086;16.282;2022-11-25T02:48:48;3.20;;;1.87;;
12921;SDS011;6528;48.086;16.282;2022-11-25T02:51:36;3.47;;;1.20;;
12921;SDS011;6528;48.086;16.282;2022-11-25T02:54:05;4.00;;;1.23;;
12921;SDS011;6528;48.086;16.282;2022-11-25T02:56:33;1.70;;;1.37;;
12921;SDS011;6528;48.086;16.282;2022-11-25T02:59:01;2.40;;;0.90;;
12921;SDS011;6528;48.086;16.282;2022-11-25T03:01:28;2.40;;;1.00;;
12921;SDS011;6528;48.086;16.282;2022-11-25T03:03:57;1.80;;;0.87;;
12921;SDS011;6528;48.086;16.282;2022-11-25T03:06:24;1.67;;;1.00;;
12921;SDS011;6528;48.086;16.282;2022-11-25T03:08:52;2.40;;;1.13;;
12921;SDS011;6528;48.086;16.282;2022-11-25T03:11:19;0.80;;;0.80;;
12921;SDS011;6528;48.086;16.282;2022-11-25T03:13:46;1.50;;;1.17;;
12921;SDS011;6528;48.086;16.282;2022-11-25T03:16:13;1.77;;;0.90;;
12921;SDS011;6528;48.086;16.282;2022-11-25T03:18:40;2.20;;;0.80;;
12921;SDS011;6528;48.086;16.282;2022-11-25T03:21:06;0.80;;;0.70;;
12921;SDS011;6528;48.086;16.282;2022-11-25T03:23:33;0.80;;;0.70;;
12921;SDS011;6528;48.086;16.282;2022-11-25T03:26:03;1.13;;;0.70;;
12921;SDS011;6528;48.086;16.282;2022-11-25T03:28:31;0.70;;;0.70;;
12921;SDS011;6528;48.086;16.282;2022-11-25T03:30:58;1.23;;;0.77;;
12921;SDS011;6528;48.086;16.282;2022-11-25T03:33:25;0.70;;;0.70;;
12921;SDS011;6528;48.086;16.282;2022-11-25T03:35:52;2.27;;;0.70;;
12921;SDS011;6528;48.086;16.282;2022-11-25T03:38:18;2.13;;;1.20;;
12921;SDS011;6528;48.086;16.282;2022-11-25T03:40:46;2.20;;;0.80;;
12921;SDS011;6528;48.086;16.282;2022-11-25T03:43:13;1.07;;;0.70;;
12921;SDS011;6528;48.086;16.282;2022-11-25T03:45:40;1.07;;;0.60;;
12921;SDS011;6528;48.086;16.282;2022-11-25T03:48:06;0.80;;;0.73;;
12921;SDS011;6528;48.086;16.282;2022-11-25T03:50:33;1.70;;;0.80;;
12921;SDS011;6528;48.086;16.282;2022-11-25T03:53:00;2.30;;;1.07;;
12921;SDS011;6528;48.086;16.282;2022-11-25T03:55:27;1.77;;;0.80;;
12921;SDS011;6528;48.086;16.282;2022-11-25T03:57:54;0.87;;;0.73;;
12921;SDS011;6528;48.086;16.282;2022-11-25T04:00:21;0.97;;;0.60;;
12921;SDS011;6528;48.086;16.282;2022-11-25T04:02:48;1.23;;;0.63;;
12921;SDS011;6528;48.086;16.282;2022-11-25T04:05:14;0.70;;;0.57;;
12921;SDS011;6528;48.086;16.282;2022-11-25T04:07:41;0.60;;;0.60;;
12921;SDS011;6528;48.086;16.282;2022-11-25T04:10:08;0.90;;;0.80;;
12921;SDS011;6528;48.086;16.282;2022-11-25T04:12:36;1.20;;;0.60;;
12921;SDS011;6528;48.086;16.282;2022-11-25T04:15:15;0.80;;;0.80;;
12921;SDS011;6528;48.086;16.282;2022-11-25T04:17:43;0.77;;;0.63;;
12921;SDS011;6528;48.086;16.282;2022-11-25T04:20:11;0.73;;;0.70;;
12921;SDS011;6528;48.086;16.282;2022-11-25T04:22:38;0.70;;;0.60;;
12921;SDS011;6528;48.086;16.282;2022-11-25T04:25:06;1.07;;;0.80;;
12921;SDS011;6528;48.086;16.282;2022-11-25T04:27:33;0.80;;;0.80;;
12921;SDS011;6528;48.086;16.282;2022-11-25T04:30:00;1.00;;;0.87;;
12921;SDS011;6528;48.086;16.282;2022-11-25T04:32:27;0.83;;;0.70;;
12921;SDS011;6528;48.086;16.282;2022-11-25T04:34:53;0.77;;;0.60;;
12921;SDS011;6528;48.086;16.282;2022-11-25T04:37:20;0.83;;;0.50;;
12921;SDS011;6528;48.086;16.282;2022-11-25T04:39:47;0.60;;;0.50;;
12921;SDS011;6528;48.086;16.282;2022-11-25T04:42:14;0.63;;;0.60;;
12921;SDS011;6528;48.086;16.282;2022-11-25T04:45:00;0.50;;;0.50;;
12921;SDS011;6528;48.086;16.282;2022-11-25T04:47:49;0.70;;;0.70;;
12921;SDS011;6528;48.086;16.282;2022-11-25T04:50:17;2.10;;;0.90;;
12921;SDS011;6528;48.086;16.282;2022-11-25T04:52:46;1.03;;;0.70;;
12921;SDS011;6528;48.086;16.282;2022-11-25T04:55:13;1.03;;;1.03;;
12921;SDS011;6528;48.086;16.282;2022-11-25T04:57:40;1.17;;;1.07;;
12921;SDS011;6528;48.086;16.282;2022-11-25T05:00:07;0.70;;;0.57;;
12921;SDS011;6528;48.086;16.282;2022-11-25T05:02:35;1.57;;;0.70;;
12921;SDS011;6528;48.086;16.282;2022-11-25T05:05:02;0.93;;;0.90;;
12921;SDS011;6528;48.086;16.282;2022-11-25T05:07:30;0.80;;;0.60;;
12921;SDS011;6528;48.086;16.282;2022-11-25T05:09:56;0.70;;;0.70;;
12921;SDS011;6528;48.086;16.282;2022-11-25T05:12:24;1.23;;;0.80;;
12921;SDS011;6528;48.086;16.282;2022-11-25T05:14:53;2.10;;;0.97;;
12921;SDS011;6528;48.086;16.282;2022-11-25T05:17:22;0.70;;;0.70;;
12921;SDS011;6528;48.086;16.282;2022-11-25T05:19:51;0.90;;;0.90;;
12921;SDS011;6528;48.086;16.282;2022-11-25T05:22:20;0.77;;;0.77;;
12921;SDS011;6528;48.086;16.282;2022-11-25T05:24:49;1.40;;;0.87;;
12921;SDS011;6528;48.086;16.282;2022-11-25T05:27:16;1.00;;;1.00;;
12921;SDS011;6528;48.086;16.282;2022-11-25T05:29:44;0.60;;;0.60;;
12921;SDS011;6528;48.086;16.282;2022-11-25T05:32:18;1.23;;;0.93;;
12921;SDS011;6528;48.086;16.282;2022-11-25T05:34:44;1.80;;;0.87;;
12921;SDS011;6528;48.086;16.282;2022-11-25T05:37:12;1.40;;;0.70;;
12921;SDS011;6528;48.086;16.282;2022-11-25T05:39:45;1.50;;;0.97;;
12921;SDS011;6528;48.086;16.282;2022-11-25T05:42:13;0.87;;;0.70;;
12921;SDS011;6528;48.086;16.282;2022-11-25T05:44:41;0.73;;;0.70;;
12921;SDS011;6528;48.086;16.282;2022-11-25T05:47:08;2.27;;;1.10;;
12921;SDS011;6528;48.086;16.282;2022-11-25T05:49:35;1.77;;;0.90;;
12921;SDS011;6528;48.086;16.282;2022-11-25T05:52:02;1.53;;;1.23;;
12921;SDS011;6528;48.086;16.282;2022-11-25T05:54:29;0.80;;;0.80;;
12921;SDS011;6528;48.086;16.282;2022-11-25T05:56:56;1.00;;;0.90;;
12921;SDS011;6528;48.086;16.282;2022-11-25T05:59:23;0.70;;;0.70;;
12921;SDS011;6528;48.086;16.282;2022-11-25T06:01:51;0.70;;;0.70;;
12921;SDS011;6528;48.086;16.282;2022-11-25T06:04:19;1.43;;;0.80;;
12921;SDS011;6528;48.086;16.282;2022-11-25T06:06:46;1.00;;;0.90;;
12921;SDS011;6528;48.086;16.282;2022-11-25T06:09:12;1.67;;;0.97;;
12921;SDS011;6528;48.086;16.282;2022-11-25T06:11:39;1.60;;;0.60;;
12921;SDS011;6528;48.086;16.282;2022-11-25T06:14:06;1.07;;;0.90;;
12921;SDS011;6528;48.086;16.282;2022-11-25T06:16:33;1.40;;;0.97;;
12921;SDS011;6528;48.086;16.282;2022-11-25T06:19:00;2.40;;;1.00;;
12921;SDS011;6528;48.086;16.282;2022-11-25T06:21:32;1.57;;;1.43;;
12921;SDS011;6528;48.086;16.282;2022-11-25T06:23:59;2.97;;;1.10;;
12921;SDS011;6528;48.086;16.282;2022-11-25T06:26:26;3.30;;;1.47;;
12921;SDS011;6528;48.086;16.282;2022-11-25T06:28:53;2.33;;;1.77;;
12921;SDS011;6528;48.086;16.282;2022-11-25T06:31:22;2.70;;;2.40;;
12921;SDS011;6528;48.086;16.282;2022-11-25T06:33:51;2.30;;;2.10;;
12921;SDS011;6528;48.086;16.282;2022-11-25T06:36:19;1.97;;;1.87;;
12921;SDS011;6528;48.086;16.282;2022-11-25T06:38:47;1.77;;;1.67;;
12921;SDS011;6528;48.086;16.282;2022-11-25T06:41:17;2.30;;;2.10;;
12921;SDS011;6528;48.086;16.282;2022-11-25T06:43:44;2.60;;;2.37;;
12921;SDS011;6528;48.086;16.282;2022-11-25T06:46:14;5.00;;;2.10;;
12921;SDS011;6528;48.086;16.282;2022-11-25T06:48:50;2.53;;;2.30;;
12921;SDS011;6528;48.086;16.282;2022-11-25T06:51:20;3.43;;;2.63;;
12921;SDS011;6528;48.086;16.282;2022-11-25T06:53:49;3.43;;;2.73;;
12921;SDS011;6528;48.086;16.282;2022-11-25T06:56:21;4.43;;;2.70;;
12921;SDS011;6528;48.086;16.282;2022-11-25T06:58:50;3.87;;;2.77;;
12921;SDS011;6528;48.086;16.282;2022-11-25T07:01:19;2.77;;;2.27;;
12921;SDS011;6528;48.086;16.282;2022-11-25T07:03:50;5.10;;;2.87;;
12921;SDS011;6528;48.086;16.282;2022-11-25T07:06:18;4.23;;;2.93;;
12921;SDS011;6528;48.086;16.282;2022-11-25T07:08:46;6.33;;;3.27;;
12921;SDS011;6528;48.086;16.282;2022-11-25T07:11:17;3.83;;;2.47;;
12921;SDS011;6528;48.086;16.282;2022-11-25T07:13:47;3.73;;;2.90;;
12921;SDS011;6528;48.086;16.282;2022-11-25T07:16:17;5.33;;;3.00;;
12921;SDS011;6528;48.086;16.282;2022-11-25T07:18:44;3.80;;;3.23;;
12921;SDS011;6528;48.086;16.282;2022-11-25T07:21:12;7.30;;;3.00;;
12921;SDS011;6528;48.086;16.282;2022-11-25T07:23:41;4.73;;;3.30;;
12921;SDS011;6528;48.086;16.282;2022-11-25T07:26:10;3.40;;;3.10;;
12921;SDS011;6528;48.086;16.282;2022-11-25T07:28:42;4.23;;;3.17;;
12921;SDS011;6528;48.086;16.282;2022-11-25T07:31:16;6.27;;;3.80;;
12921;SDS011;6528;48.086;16.282;2022-11-25T07:33:57;6.07;;;3.83;;
12921;SDS011;6528;48.086;16.282;2022-11-25T07:36:31;4.93;;;3.50;;
12921;SDS011;6528;48.086;16.282;2022-11-25T07:39:00;4.03;;;3.70;;
12921;SDS011;6528;48.086;16.282;2022-11-25T07:41:29;4.33;;;3.43;;
12921;SDS011;6528;48.086;16.282;2022-11-25T07:43:57;4.97;;;4.10;;
12921;SDS011;6528;48.086;16.282;2022-11-25T07:48:56;7.93;;;4.40;;
12921;SDS011;6528;48.086;16.282;2022-11-25T07:54:28;6.13;;;4.33;;
12921;SDS011;6528;48.086;16.282;2022-11-25T07:56:56;7.23;;;5.10;;
12921;SDS011;6528;48.086;16.282;2022-11-25T07:59:23;6.43;;;5.33;;
12921;SDS011;6528;48.086;16.282;2022-11-25T08:01:53;5.33;;;4.80;;
12921;SDS011;6528;48.086;16.282;2022-11-25T08:04:21;9.60;;;5.90;;
12921;SDS011;6528;48.086;16.282;2022-11-25T08:06:49;5.50;;;5.00;;
12921;SDS011;6528;48.086;16.282;2022-11-25T08:09:20;8.00;;;4.70;;
12921;SDS011;6528;48.086;16.282;2022-11-25T08:11:48;6.93;;;5.40;;
12921;SDS011;6528;48.086;16.282;2022-11-25T08:14:15;5.57;;;4.90;;
12921;SDS011;6528;48.086;16.282;2022-11-25T08:16:43;9.00;;;5.63;;
12921;SDS011;6528;48.086;16.282;2022-11-25T08:19:11;6.40;;;5.23;;
12921;SDS011;6528;48.086;16.282;2022-11-25T08:21:40;6.07;;;5.13;;
12921;SDS011;6528;48.086;16.282;2022-11-25T08:24:12;5.30;;;4.77;;
12921;SDS011;6528;48.086;16.282;2022-11-25T08:26:43;6.17;;;5.43;;
12921;SDS011;6528;48.086;16.282;2022-11-25T08:29:14;7.07;;;4.47;;
12921;SDS011;6528;48.086;16.282;2022-11-25T08:31:43;4.80;;;4.37;;
12921;SDS011;6528;48.086;16.282;2022-11-25T08:34:15;5.63;;;4.60;;
12921;SDS011;6528;48.086;16.282;2022-11-25T08:36:46;6.23;;;4.47;;
12921;SDS011;6528;48.086;16.282;2022-11-25T08:39:14;6.20;;;4.80;;
12921;SDS011;6528;48.086;16.282;2022-11-25T08:42:03;5.80;;;4.23;;
12921;SDS011;6528;48.086;16.282;2022-11-25T08:44:31;6.13;;;4.00;;
12921;SDS011;6528;48.086;16.282;2022-11-25T08:46:58;5.00;;;4.37;;
12921;SDS011;6528;48.086;16.282;2022-11-25T08:49:25;4.90;;;3.90;;
12921;SDS011;6528;48.086;16.282;2022-11-25T08:51:54;4.57;;;4.17;;
12921;SDS011;6528;48.086;16.282;2022-11-25T08:54:21;6.30;;;4.50;;
12921;SDS011;6528;48.086;16.282;2022-11-25T08:56:48;4.20;;;3.90;;
12921;SDS011;6528;48.086;16.282;2022-11-25T08:59:15;6.40;;;5.37;;
12921;SDS011;6528;48.086;16.282;2022-11-25T09:01:41;5.23;;;4.27;;
12921;SDS011;6528;48.086;16.282;2022-11-25T09:04:09;4.50;;;4.10;;
12921;SDS011;6528;48.086;16.282;2022-11-25T09:06:37;5.07;;;4.07;;
12921;SDS011;6528;48.086;16.282;2022-11-25T09:09:04;5.83;;;3.70;;
12921;SDS011;6528;48.086;16.282;2022-11-25T09:11:32;5.03;;;4.30;;
12921;SDS011;6528;48.086;16.282;2022-11-25T09:13:59;5.13;;;4.63;;
12921;SDS011;6528;48.086;16.282;2022-11-25T09:16:26;4.83;;;4.10;;
12921;SDS011;6528;48.086;16.282;2022-11-25T09:18:53;4.47;;;3.97;;
12921;SDS011;6528;48.086;16.282;2022-11-25T09:21:22;3.60;;;3.30;;
12921;SDS011;6528;48.086;16.282;2022-11-25T09:23:50;4.70;;;3.90;;
12921;SDS011;6528;48.086;16.282;2022-11-25T09:26:20;4.10;;;3.60;;
12921;SDS011;6528;48.086;16.282;2022-11-25T09:28:52;5.43;;;4.40;;
12921;SDS011;6528;48.086;16.282;2022-11-25T09:31:20;5.97;;;4.97;;
12921;SDS011;6528;48.086;16.282;2022-11-25T09:33:48;5.40;;;3.97;;
12921;SDS011;6528;48.086;16.282;2022-11-25T09:36:16;8.37;;;4.63;;
12921;SDS011;6528;48.086;16.282;2022-11-25T09:38:44;7.27;;;4.73;;
12921;SDS011;6528;48.086;16.282;2022-11-25T09:44:41;5.63;;;4.73;;
12921;SDS011;6528;48.086;16.282;2022-11-25T09:55:35;8.43;;;5.03;;
12921;SDS011;6528;48.086;16.282;2022-11-25T10:01:25;5.50;;;3.90;;
12921;SDS011;6528;48.086;16.282;2022-11-25T10:04:08;4.23;;;3.83;;
12921;SDS011;6528;48.086;16.282;2022-11-25T10:06:42;5.47;;;3.90;;
12921;SDS011;6528;48.086;16.282;2022-11-25T10:09:24;6.93;;;4.10;;
12921;SDS011;6528;48.086;16.282;2022-11-25T10:20:05;5.07;;;3.27;;
12921;SDS011;6528;48.086;16.282;2022-11-25T10:22:59;5.80;;;3.50;;
12921;SDS011;6528;48.086;16.282;2022-11-25T10:25:37;6.27;;;3.17;;
12921;SDS011;6528;48.086;16.282;2022-11-25T10:28:24;8.73;;;3.53;;
12921;SDS011;6528;48.086;16.282;2022-11-25T10:31:00;6.20;;;3.73;;
12921;SDS011;6528;48.086;16.282;2022-11-25T10:38:49;5.53;;;3.30;;
12921;SDS011;6528;48.086;16.282;2022-11-25T10:41:22;5.27;;;3.20;;
12921;SDS011;6528;48.086;16.282;2022-11-25T10:43:51;3.50;;;2.93;;
12921;SDS011;6528;48.086;16.282;2022-11-25T10:52:21;3.17;;;2.80;;
12921;SDS011;6528;48.086;16.282;2022-11-25T10:54:56;5.60;;;3.93;;
12921;SDS011;6528;48.086;16.282;2022-11-25T10:57:43;7.30;;;2.87;;
12921;SDS011;6528;48.086;16.282;2022-11-25T11:00:24;5.10;;;2.57;;
12921;SDS011;6528;48.086;16.282;2022-11-25T11:02:55;5.87;;;2.60;;
12921;SDS011;6528;48.086;16.282;2022-11-25T11:05:24;6.67;;;3.27;;
12921;SDS011;6528;48.086;16.282;2022-11-25T11:08:08;5.70;;;2.93;;
12921;SDS011;6528;48.086;16.282;2022-11-25T11:10:56;3.93;;;3.07;;
12921;SDS011;6528;48.086;16.282;2022-11-25T11:13:44;3.53;;;3.23;;
12921;SDS011;6528;48.086;16.282;2022-11-25T11:19:00;3.77;;;2.50;;
12921;SDS011;6528;48.086;16.282;2022-11-25T11:24:08;5.43;;;2.80;;
12921;SDS011;6528;48.086;16.282;2022-11-25T11:27:01;7.63;;;2.90;;
12921;SDS011;6528;48.086;16.282;2022-11-25T11:29:34;5.27;;;3.20;;
12921;SDS011;6528;48.086;16.282;2022-11-25T11:32:03;3.17;;;2.87;;
12921;SDS011;6528;48.086;16.282;2022-11-25T11:51:46;8.10;;;6.33;;
12921;SDS011;6528;48.086;16.282;2022-11-25T11:54:40;8.50;;;6.17;;
12921;SDS011;6528;48.086;16.282;2022-11-25T11:57:17;6.73;;;5.77;;
12921;SDS011;6528;48.086;16.282;2022-11-25T12:00:01;7.60;;;6.07;;
12921;SDS011;6528;48.086;16.282;2022-11-25T12:16:16;6.07;;;5.47;;
12921;SDS011;6528;48.086;16.282;2022-11-25T12:18:54;8.70;;;5.63;;
12921;SDS011;6528;48.086;16.282;2022-11-25T12:27:10;5.17;;;4.67;;
12921;SDS011;6528;48.086;16.282;2022-11-25T12:30:00;6.83;;;5.20;;
12921;SDS011;6528;48.086;16.282;2022-11-25T12:43:03;6.57;;;5.97;;
12921;SDS011;6528;48.086;16.282;2022-11-25T12:45:41;6.90;;;6.20;;
12921;SDS011;6528;48.086;16.282;2022-11-25T12:48:12;7.03;;;5.90;;
12921;SDS011;6528;48.086;16.282;2022-11-25T12:51:02;6.47;;;5.60;;
12921;SDS011;6528;48.086;16.282;2022-11-25T12:53:54;6.23;;;5.50;;
12921;SDS011;6528;48.086;16.282;2022-11-25T12:59:49;7.73;;;6.40;;
12921;SDS011;6528;48.086;16.282;2022-11-25T13:03:13;7.43;;;6.70;;
12921;SDS011;6528;48.086;16.282;2022-11-25T13:11:46;8.07;;;7.27;;
12921;SDS011;6528;48.086;16.282;2022-11-25T13:17:30;7.33;;;6.50;;
12921;SDS011;6528;48.086;16.282;2022-11-25T13:25:36;7.37;;;6.10;;
12921;SDS011;6528;48.086;16.282;2022-11-25T13:28:50;9.13;;;6.93;;
12921;SDS011;6528;48.086;16.282;2022-11-25T13:30:54;6.90;;;6.00;;
12921;SDS011;6528;48.086;16.282;2022-11-25T13:43:59;8.00;;;6.53;;
12921;SDS011;6528;48.086;16.282;2022-11-25T13:46:37;7.53;;;6.73;;
12921;SDS011;6528;48.086;16.282;2022-11-25T14:07:43;8.57;;;5.97;;
12921;SDS011;6528;48.086;16.282;2022-11-25T14:10:38;7.07;;;6.37;;
12921;SDS011;6528;48.086;16.282;2022-11-25T14:16:00;7.23;;;6.53;;
12921;SDS011;6528;48.086;16.282;2022-11-25T14:25:22;7.20;;;6.07;;
12921;SDS011;6528;48.086;16.282;2022-11-25T14:27:55;7.77;;;6.80;;
12921;SDS011;6528;48.086;16.282;2022-11-25T14:30:35;6.70;;;6.00;;
12921;SDS011;6528;48.086;16.282;2022-11-25T14:33:19;8.13;;;5.97;;
12921;SDS011;6528;48.086;16.282;2022-11-25T14:35:52;7.00;;;6.27;;
12921;SDS011;6528;48.086;16.282;2022-11-25T14:38:27;7.07;;;6.37;;
12921;SDS011;6528;48.086;16.282;2022-11-25T14:41:07;7.00;;;6.30;;
12921;SDS011;6528;48.086;16.282;2022-11-25T14:43:46;6.93;;;5.87;;
12921;SDS011;6528;48.086;16.282;2022-11-25T14:46:21;7.57;;;6.87;;
12921;SDS011;6528;48.086;16.282;2022-11-25T14:48:54;7.10;;;6.10;;
12921;SDS011;6528;48.086;16.282;2022-11-25T14:51:35;6.30;;;5.73;;
12921;SDS011;6528;48.086;16.282;2022-11-25T14:54:07;5.57;;;5.03;;
12921;SDS011;6528;48.086;16.282;2022-11-25T14:56:35;7.20;;;6.00;;
12921;SDS011;6528;48.086;16.282;2022-11-25T14:59:04;6.20;;;5.60;;
12921;SDS011;6528;48.086;16.282;2022-11-25T15:01:35;6.10;;;5.50;;
12921;SDS011;6528;48.086;16.282;2022-11-25T15:06:40;7.27;;;5.67;;
12921;SDS011;6528;48.086;16.282;2022-11-25T15:12:09;6.70;;;5.80;;
12921;SDS011;6528;48.086;16.282;2022-11-25T15:14:41;6.80;;;6.10;;
12921;SDS011;6528;48.086;16.282;2022-11-25T15:17:24;6.80;;;6.10;;
12921;SDS011;6528;48.086;16.282;2022-11-25T15:19:52;6.53;;;5.80;;
12921;SDS011;6528;48.086;16.282;2022-11-25T15:22:20;6.63;;;6.00;;
12921;SDS011;6528;48.086;16.282;2022-11-25T15:24:50;9.07;;;6.47;;
12921;SDS011;6528;48.086;16.282;2022-11-25T15:27:25;6.33;;;5.67;;
12921;SDS011;6528;48.086;16.282;2022-11-25T15:29:54;6.37;;;5.70;;
12921;SDS011;6528;48.086;16.282;2022-11-25T15:32:26;5.77;;;5.27;;
12921;SDS011;6528;48.086;16.282;2022-11-25T15:34:57;6.60;;;5.23;;
12921;SDS011;6528;48.086;16.282;2022-11-25T15:37:26;5.47;;;4.97;;
12921;SDS011;6528;48.086;16.282;2022-11-25T15:42:58;5.83;;;5.30;;
12921;SDS011;6528;48.086;16.282;2022-11-25T15:45:43;5.63;;;5.03;;
12921;SDS011;6528;48.086;16.282;2022-11-25T15:48:15;5.10;;;4.70;;
12921;SDS011;6528;48.086;16.282;2022-11-25T15:50:57;5.77;;;5.17;;
12921;SDS011;6528;48.086;16.282;2022-11-25T15:53:28;7.37;;;5.87;;
12921;SDS011;6528;48.086;16.282;2022-11-25T15:56:02;5.10;;;4.60;;
12921;SDS011;6528;48.086;16.282;2022-11-25T15:58:31;5.90;;;5.27;;
12921;SDS011;6528;48.086;16.282;2022-11-25T16:01:02;6.80;;;5.23;;
12921;SDS011;6528;48.086;16.282;2022-11-25T16:03:33;5.43;;;4.93;;
12921;SDS011;6528;48.086;16.282;2022-11-25T16:06:01;6.47;;;4.93;;
12921;SDS011;6528;48.086;16.282;2022-11-25T16:08:50;7.10;;;5.20;;
12921;SDS011;6528;48.086;16.282;2022-11-25T16:11:20;5.40;;;4.90;;
12921;SDS011;6528;48.086;16.282;2022-11-25T16:13:49;6.27;;;5.67;;
12921;SDS011;6528;48.086;16.282;2022-11-25T16:16:18;6.20;;;5.23;;
12921;SDS011;6528;48.086;16.282;2022-11-25T16:29:01;6.23;;;5.10;;
12921;SDS011;6528;48.086;16.282;2022-11-25T16:31:36;4.57;;;4.20;;
12921;SDS011;6528;48.086;16.282;2022-11-25T16:34:13;5.97;;;5.37;;
12921;SDS011;6528;48.086;16.282;2022-11-25T16:36:42;5.70;;;4.93;;
12921;SDS011;6528;48.086;16.282;2022-11-25T16:39:10;5.70;;;4.90;;
12921;SDS011;6528;48.086;16.282;2022-11-25T16:41:36;4.97;;;4.47;;
12921;SDS011;6528;48.086;16.282;2022-11-25T16:44:04;5.50;;;4.90;;
12921;SDS011;6528;48.086;16.282;2022-11-25T16:46:38;5.17;;;4.67;;
12921;SDS011;6528;48.086;16.282;2022-11-25T16:49:15;4.60;;;4.20;;
12921;SDS011;6528;48.086;16.282;2022-11-25T16:51:43;6.07;;;5.03;;
12921;SDS011;6528;48.086;16.282;2022-11-25T16:54:10;5.70;;;5.10;;
12921;SDS011;6528;48.086;16.282;2022-11-25T16:56:41;4.93;;;4.43;;
12921;SDS011;6528;48.086;16.282;2022-11-25T16:59:13;4.63;;;4.17;;
12921;SDS011;6528;48.086;16.282;2022-11-25T17:02:42;4.93;;;4.50;;
12921;SDS011;6528;48.086;16.282;2022-11-25T17:05:19;5.67;;;4.60;;
12921;SDS011;6528;48.086;16.282;2022-11-25T17:07:48;5.17;;;4.67;;
12921;SDS011;6528;48.086;16.282;2022-11-25T17:10:15;4.90;;;4.40;;
12921;SDS011;6528;48.086;16.282;2022-11-25T17:12:43;4.73;;;4.33;;
12921;SDS011;6528;48.086;16.282;2022-11-25T17:15:12;4.90;;;4.40;;
12921;SDS011;6528;48.086;16.282;2022-11-25T17:17:45;4.80;;;3.80;;
12921;SDS011;6528;48.086;16.282;2022-11-25T17:20:13;4.50;;;4.10;;
12921;SDS011;6528;48.086;16.282;2022-11-25T17:22:41;4.50;;;4.13;;
12921;SDS011;6528;48.086;16.282;2022-11-25T17:25:10;5.40;;;4.40;;
12921;SDS011;6528;48.086;16.282;2022-11-25T17:27:37;4.00;;;3.70;;
12921;SDS011;6528;48.086;16.282;2022-11-25T17:30:06;5.03;;;4.53;;
12921;SDS011;6528;48.086;16.282;2022-11-25T17:32:40;4.90;;;4.43;;
12921;SDS011;6528;48.086;16.282;2022-11-25T17:35:16;4.17;;;3.77;;
12921;SDS011;6528;48.086;16.282;2022-11-25T17:37:44;4.83;;;4.43;;
12921;SDS011;6528;48.086;16.282;2022-11-25T17:40:12;4.83;;;4.03;;
12921;SDS011;6528;48.086;16.282;2022-11-25T17:42:39;4.40;;;4.00;;
12921;SDS011;6528;48.086;16.282;2022-11-25T17:45:13;4.60;;;4.20;;
12921;SDS011;6528;48.086;16.282;2022-11-25T17:47:42;4.93;;;4.53;;
12921;SDS011;6528;48.086;16.282;2022-11-25T17:52:51;4.93;;;4.40;;
12921;SDS011;6528;48.086;16.282;2022-11-25T17:55:18;5.37;;;3.90;;
12921;SDS011;6528;48.086;16.282;2022-11-25T17:57:48;4.30;;;4.00;;
12921;SDS011;6528;48.086;16.282;2022-11-25T18:00:16;4.30;;;3.90;;
12921;SDS011;6528;48.086;16.282;2022-11-25T18:02:45;4.40;;;3.87;;
12921;SDS011;6528;48.086;16.282;2022-11-25T18:05:16;4.20;;;3.90;;
12921;SDS011;6528;48.086;16.282;2022-11-25T18:07:45;5.40;;;3.90;;
12921;SDS011;6528;48.086;16.282;2022-11-25T18:10:16;4.00;;;3.67;;
12921;SDS011;6528;48.086;16.282;2022-11-25T18:12:46;3.33;;;3.13;;
12921;SDS011;6528;48.086;16.282;2022-11-25T18:15:16;4.40;;;4.10;;